Meteorological Aerodrome Report (METAR)

METAR

Data at: 1045 UTC 23 Feb 2020

METAR for:NVSC (Sola/Vanua Lava Arpt, --, NV)
Text:NVSC 230900Z 00000KT 9999 SCT020 29/23 Q1010
Temperature: 29.0°C ( 84°F)
Dewpoint: 23.0°C ( 73°F) [RH = 70%]
Pressure (altimeter):29.82 inches Hg (1010.0 mb)
Winds:calm
Visibility:6 or more sm (10+ km)
Ceiling:at least 12,000 feet AGL
Clouds: scattered clouds at 2000 feet AGL

METAR

Data at: 1045 UTC 23 Feb 2020

METAR for:NVSG (Longana Arpt, --, NV)
Text:NVSG 230900Z AUTO 17004KT //// // NCD ///// Q1011
Pressure (altimeter):29.85 inches Hg (1011.0 mb)
Winds:from the S (170 degrees) at 5 MPH (4 knots; 2.1 m/s)
Ceiling:at least 12,000 feet AGL
Clouds:sky clear below 12,000 feet AGL

METAR

Data at: 1045 UTC 23 Feb 2020

METAR for:NVSS (Santo/Pekoa Intl, --, NV)
Text:NVSS 230900Z 12006KT 9999 SCT020 28/24 Q1010
Temperature: 28.0°C ( 82°F)
Dewpoint: 24.0°C ( 75°F) [RH = 79%]
Pressure (altimeter):29.82 inches Hg (1010.0 mb)
Winds:from the ESE (120 degrees) at 7 MPH (6 knots; 3.1 m/s)
Visibility:6 or more sm (10+ km)
Ceiling:at least 12,000 feet AGL
Clouds: scattered clouds at 2000 feet AGL

METAR

Data at: 1045 UTC 23 Feb 2020

METAR for:NVSL (Malekula/Lamap, --, NV)
Text:NVSL 230900Z AUTO 14006KT //// // NCD 27/27 Q1010
Temperature: 27.0°C ( 81°F)
Dewpoint: 27.0°C ( 81°F) [RH = 100%]
Pressure (altimeter):29.82 inches Hg (1010.0 mb)
Winds:from the SE (140 degrees) at 7 MPH (6 knots; 3.1 m/s)
Ceiling:at least 12,000 feet AGL
Clouds:sky clear below 12,000 feet AGL

METAR

Data at: 1045 UTC 23 Feb 2020

METAR for:NVSP (Norsup Arpt, --, NV)
Text:No data found

METAR

Data at: 1045 UTC 23 Feb 2020

METAR for:NVVV (Efate/Bauerfield Int, --, NV)
Text:NVVV 231000Z 01002KT 9999 FEW020 24/22 Q1012
Temperature: 24.0°C ( 75°F)
Dewpoint: 22.0°C ( 72°F) [RH = 89%]
Pressure (altimeter):29.88 inches Hg (1012.0 mb)
Winds:from the N (10 degrees) at 2 MPH (2 knots; 1.0 m/s)
Visibility:6 or more sm (10+ km)
Ceiling:at least 12,000 feet AGL
Clouds: few clouds at 2000 feet AGL

METAR

Data at: 1045 UTC 23 Feb 2020

METAR for:NVVW (Tanna Arpt, --, NV)
Text:NVVW 230900Z VRB03KT 9999 FEW025 25/22 Q1012
Temperature: 25.0°C ( 77°F)
Dewpoint: 22.0°C ( 72°F) [RH = 83%]
Pressure (altimeter):29.88 inches Hg (1012.0 mb)
Winds:variable direction winds at 3 MPH (3 knots; 1.5 m/s)
Visibility:6 or more sm (10+ km)
Ceiling:at least 12,000 feet AGL
Clouds: few clouds at 2500 feet AGL

METAR

Data at: 1045 UTC 23 Feb 2020

METAR for:NVVA (Aneityum/Mystery Isl, --, NV)
Text:NVVA 230900Z 09008KT 9999 SCT020 27/23 Q1012
Temperature: 27.0°C ( 81°F)
Dewpoint: 23.0°C ( 73°F) [RH = 79%]
Pressure (altimeter):29.88 inches Hg (1012.0 mb)
Winds:from the E (90 degrees) at 9 MPH (8 knots; 4.1 m/s)
Visibility:6 or more sm (10+ km)
Ceiling:at least 12,000 feet AGL
Clouds: scattered clouds at 2000 feet AGL

METAR

Data at: 1045 UTC 23 Feb 2020

NVVV 231000Z 01002KT 9999 FEW020 24/22 Q1012
NVSC 230900Z 00000KT 9999 SCT020 29/23 Q1010
NVSG 230900Z AUTO 17004KT //// // NCD ///// Q1011
NVSS 230900Z 12006KT 9999 SCT020 28/24 Q1010
NVSL 230900Z AUTO 14006KT //// // NCD 27/27 Q1010
No Data available for NVSP
NVVW 230900Z VRB03KT 9999 FEW025 25/22 Q1012
NVVA 230900Z 09008KT 9999 SCT020 27/23 Q1012